Time;durP1;ratioP1;P1;durP2;ratioP2;P2;SDS_P1;SDS_P2;PMS_P1;PMS_P2;Temp;Humidity;BMP_temperature;BMP_pressure;BME280_temperature;BME280_humidity;BME280_pressure;Samples;Min_cycle;Max_cycle;Signal;HPM_P1;HPM_P2
2021/07/23 00:02:11;;;;;;;17.07;4.85;;;;;;;20.81;66.74;101312.61;1763668;81;21833;-72
2021/07/23 00:04:46;;;;;;;11.70;5.20;;;;;;;20.78;66.87;101308.42;1787171;79;21699;-72
2021/07/23 00:07:18;;;;;;;12.90;5.58;;;;;;;20.77;66.96;101307.31;1768586;81;21304;-70
2021/07/23 00:09:51;;;;;;;9.15;4.72;;;;;;;20.75;66.98;101300.59;1738341;82;21332;-71
2021/07/23 00:12:24;;;;;;;12.88;5.80;;;;;;;20.73;66.98;101303.47;1763481;81;21244;-71
2021/07/23 00:14:57;;;;;;;13.37;4.53;;;;;;;20.71;66.98;101305.74;1763757;81;21766;-70
2021/07/23 00:17:30;;;;;;;14.38;4.67;;;;;;;20.69;67.10;101305.23;1763699;81;21358;-72
2021/07/23 00:20:03;;;;;;;14.80;5.23;;;;;;;20.66;67.21;101312.93;1763814;81;21209;-72
2021/07/23 00:22:35;;;;;;;10.73;5.13;;;;;;;20.63;67.28;101311.56;1763740;81;21233;-73
2021/07/23 00:25:09;;;;;;;14.97;5.30;;;;;;;20.65;67.39;101313.48;1763640;81;21356;-71
2021/07/23 00:27:41;;;;;;;;;;;;;;;20.65;67.33;101312.08;1765897;81;21589;-73
2021/07/23 00:30:14;;;;;;;11.15;4.35;;;;;;;20.62;67.37;101310.45;1837808;75;20241;-74
2021/07/23 00:32:47;;;;;;;12.10;4.60;;;;;;;20.56;67.48;101303.23;1856832;77;21319;-75
2021/07/23 00:35:20;;;;;;;9.68;3.80;;;;;;;20.57;67.53;101313.38;1861380;77;21288;-73
2021/07/23 00:37:52;;;;;;;;;;;;;;;20.55;67.52;101311.45;1828768;77;21304;-78
2021/07/23 00:40:25;;;;;;;9.38;4.28;;;;;;;20.55;67.57;101310.03;1861294;77;20253;-77
2021/07/23 00:42:58;;;;;;;10.63;4.90;;;;;;;20.51;67.60;101315.47;1861497;77;21822;-73
2021/07/23 00:45:31;;;;;;;8.15;4.92;;;;;;;20.53;67.51;101317.39;1861708;77;21319;-75
2021/07/23 00:48:04;;;;;;;8.73;5.25;;;;;;;20.52;67.49;101317.70;1861659;77;21205;-74
2021/07/23 00:50:38;;;;;;;8.75;4.72;;;;;;;20.48;67.48;101310.43;1861357;77;21161;-74
2021/07/23 00:53:12;;;;;;;12.63;5.17;;;;;;;20.44;67.58;101310.81;1861365;77;21710;-74
2021/07/23 00:55:55;;;;;;;10.72;5.62;;;;;;;20.41;67.66;101310.59;1861546;77;21169;-73
2021/07/23 00:58:29;;;;;;;10.45;5.55;;;;;;;20.39;67.79;101312.31;1861973;74;21858;-74
2021/07/23 01:01:03;;;;;;;14.10;6.37;;;;;;;20.36;67.88;101314.33;1856435;77;21659;-73
2021/07/23 01:03:38;;;;;;;16.42;7.22;;;;;;;20.34;67.94;101318.03;1856327;77;21153;-71
2021/07/23 01:06:12;;;;;;;19.62;8.48;;;;;;;20.31;68.03;101313.59;1856381;77;21255;-72
2021/07/23 01:08:45;;;;;;;19.50;8.85;;;;;;;20.26;68.14;101306.62;1856484;77;21154;-72
2021/07/23 01:11:20;;;;;;;22.05;7.92;;;;;;;20.23;68.24;101308.08;1856365;77;21173;-72
2021/07/23 01:14:02;;;;;;;13.93;7.78;;;;;;;20.22;68.35;101304.15;1855410;77;21339;-72
2021/07/23 01:16:34;;;;;;;24.52;8.08;;;;;;;20.21;68.48;101305.30;1867810;76;21165;-71
2021/07/23 01:19:09;;;;;;;18.02;8.75;;;;;;;20.20;68.52;101306.45;1856064;77;21142;-71
2021/07/23 01:21:42;;;;;;;14.98;8.35;;;;;;;20.19;68.48;101313.24;1856553;77;21333;-71
2021/07/23 01:24:19;;;;;;;23.57;7.00;;;;;;;20.17;68.48;101313.55;1856320;77;21338;-72
2021/07/23 01:26:52;;;;;;;12.05;6.92;;;;;;;20.13;68.48;101303.20;1856375;77;21155;-72
2021/07/23 01:29:39;;;;;;;16.48;6.58;;;;;;;20.13;68.51;101313.07;1812722;77;21367;-73
2021/07/23 01:32:12;;;;;;;;;;;;;;;20.13;68.42;101317.30;1858865;77;21679;-71
2021/07/23 01:34:45;;;;;;;17.42;7.78;;;;;;;20.11;68.26;101311.96;1856161;77;20249;-71
2021/07/23 01:37:18;;;;;;;26.80;8.00;;;;;;;20.10;68.29;101311.70;1856357;77;21310;-72
2021/07/23 01:39:53;;;;;;;11.85;6.20;;;;;;;20.06;68.34;101314.05;1856072;77;21312;-70
2021/07/23 01:42:31;;;;;;;19.02;6.10;;;;;;;20.02;68.55;101308.16;1856349;77;21374;-72
2021/07/23 01:45:06;;;;;;;13.95;6.12;;;;;;;19.97;68.71;101308.80;1859026;77;21315;-72
2021/07/23 01:47:40;;;;;;;13.80;6.80;;;;;;;19.97;68.90;101318.10;1838062;77;21181;-74
2021/07/23 01:50:13;;;;;;;18.70;6.45;;;;;;;19.94;68.97;101314.47;1861455;77;21176;-72
2021/07/23 01:52:47;;;;;;;14.73;6.53;;;;;;;19.91;69.09;101317.07;1861785;77;21288;-73
2021/07/23 01:55:19;;;;;;;16.40;6.15;;;;;;;19.89;69.20;101313.17;1861680;77;21221;-73
2021/07/23 01:57:52;;;;;;;34.33;19.60;;;;;;;19.88;69.32;101316.29;1832910;75;21560;-74
2021/07/23 02:00:25;;;;;;;;;;;;;;;19.86;69.39;101314.33;1821044;77;21370;-72
2021/07/23 02:02:57;;;;;;;32.30;18.05;;;;;;;19.85;69.43;101318.30;1811336;78;20296;-71
2021/07/23 02:05:31;;;;;;;24.00;11.45;;;;;;;19.82;69.59;101314.70;1819899;77;21318;-72
2021/07/23 02:08:05;;;;;;;33.25;15.83;;;;;;;19.74;69.63;101322.45;1816682;79;21821;-71
2021/07/23 02:10:39;;;;;;;25.35;13.90;;;;;;;19.69;69.82;101323.93;1812028;79;21871;-72
2021/07/23 02:13:11;;;;;;;21.07;10.45;;;;;;;19.67;69.89;101324.78;1819222;77;21311;-71
2021/07/23 02:15:45;;;;;;;20.85;7.33;;;;;;;19.62;69.92;101324.30;1779488;80;21330;-71
2021/07/23 02:18:20;;;;;;;15.20;6.05;;;;;;;19.58;70.04;101330.86;1784709;79;21146;-71
2021/07/23 02:20:53;;;;;;;20.37;5.72;;;;;;;19.53;69.99;101330.92;1782921;80;21179;-72
2021/07/23 02:23:27;;;;;;;23.67;6.03;;;;;;;19.52;70.02;101328.67;1783038;78;21334;-72
2021/07/23 02:26:00;;;;;;;17.27;6.28;;;;;;;19.47;69.90;101324.54;1785454;79;21168;-70
2021/07/23 02:28:34;;;;;;;10.28;4.35;;;;;;;19.42;69.90;101329.39;1864300;74;21351;-76
2021/07/23 02:31:09;;;;;;;39.27;6.22;;;;;;;19.36;70.09;101334.27;1901628;75;21212;-75
2021/07/23 02:33:43;;;;;;;14.13;4.33;;;;;;;19.32;70.32;101329.55;1863147;77;21309;-74
2021/07/23 02:36:18;;;;;;;10.55;4.45;;;;;;;19.29;70.58;101328.73;1863252;77;21321;-74
2021/07/23 02:38:51;;;;;;;16.90;4.87;;;;;;;19.29;70.72;101332.96;1885236;75;21807;-73
2021/07/23 02:41:29;;;;;;;19.92;6.40;;;;;;;19.31;70.91;101334.34;1891058;76;21281;-74
2021/07/23 02:44:02;;;;;;;9.13;4.78;;;;;;;19.33;71.01;101332.63;1891058;75;21297;-78
2021/07/23 02:46:34;;;;;;;14.10;5.83;;;;;;;19.32;71.05;101338.00;1891287;76;21798;-73
2021/07/23 02:49:07;;;;;;;;;;;;;;;19.39;71.15;101339.28;1893750;76;21340;-73
2021/07/23 02:51:40;;;;;;;10.80;6.97;;;;;;;19.45;70.97;101330.20;1890776;76;20253;-73
2021/07/23 02:54:15;;;;;;;15.08;7.08;;;;;;;19.45;70.99;101338.08;1893096;75;21301;-73
2021/07/23 02:56:49;;;;;;;13.28;5.70;;;;;;;19.49;70.82;101334.08;1901418;75;21300;-72
2021/07/23 02:59:22;;;;;;;17.85;5.00;;;;;;;19.50;70.59;101344.23;1894234;75;21335;-75
2021/07/23 03:01:57;;;;;;;14.80;6.20;;;;;;;19.50;70.54;101338.00;1874445;72;21276;-73
2021/07/23 03:04:30;;;;;;;9.13;5.95;;;;;;;19.50;70.54;101343.64;1776537;79;21225;-76
2021/07/23 03:07:04;;;;;;;12.80;5.67;;;;;;;19.57;70.55;101344.69;1787467;79;21193;-72
2021/07/23 03:09:37;;;;;;;9.73;5.75;;;;;;;19.68;70.41;101345.63;1784764;79;21684;-73
2021/07/23 03:12:11;;;;;;;13.55;6.05;;;;;;;19.73;69.98;101346.96;1771508;79;21225;-72
2021/07/23 03:14:46;;;;;;;12.78;5.65;;;;;;;19.76;69.39;101344.92;1785111;79;21174;-72
2021/07/23 03:17:21;;;;;;;8.73;4.67;;;;;;;19.73;68.95;101341.33;1795595;79;21209;-72
2021/07/23 03:19:55;;;;;;;10.53;4.60;;;;;;;19.70;68.78;101345.33;1769028;81;21165;-72
2021/07/23 03:22:29;;;;;;;11.38;4.80;;;;;;;19.71;68.72;101348.41;1763035;81;21319;-73
2021/07/23 03:25:05;;;;;;;7.78;4.83;;;;;;;19.69;68.65;101348.70;1731234;81;21811;-73
2021/07/23 03:27:58;;;;;;;9.90;4.87;;;;;;;19.68;68.46;101350.45;1762839;81;21326;-72
2021/07/23 03:30:36;;;;;;;12.55;5.40;;;;;;;19.66;68.42;101349.33;1762933;79;22041;-72
2021/07/23 03:33:10;;;;;;;11.88;5.30;;;;;;;19.68;68.41;101347.62;1745470;79;21184;-71
2021/07/23 03:35:44;;;;;;;11.48;5.10;;;;;;;19.65;68.26;101357.52;1802987;79;21185;-69
2021/07/23 03:38:18;;;;;;;14.45;4.97;;;;;;;19.65;68.43;101357.52;1796488;79;21162;-70
2021/07/23 03:40:50;;;;;;;16.15;6.10;;;;;;;19.68;68.43;101361.72;1768321;80;21379;-70
2021/07/23 03:43:25;;;;;;;12.82;5.50;;;;;;;19.71;68.29;101362.50;1773907;81;21308;-69
2021/07/23 03:46:02;;;;;;;21.30;6.65;;;;;;;19.74;68.27;101359.91;1787187;79;21324;-69
2021/07/23 03:48:39;;;;;;;23.73;6.25;;;;;;;19.78;68.32;101362.95;1803391;79;21437;-70
2021/07/23 03:51:14;;;;;;;12.50;5.95;;;;;;;19.83;68.17;101365.14;1802188;79;21704;-70
2021/07/23 03:53:47;;;;;;;19.25;5.37;;;;;;;19.81;68.11;101361.77;1767548;81;21181;-69
2021/07/23 03:56:27;;;;;;;23.73;6.77;;;;;;;19.81;68.27;101360.95;1741685;82;21222;-71
2021/07/23 03:59:02;;;;;;;25.50;6.28;;;;;;;19.81;68.41;101362.36;1742141;82;21206;-71
2021/07/23 04:01:36;;;;;;;24.00;6.25;;;;;;;19.85;68.43;101364.81;1746268;80;21169;-68
2021/07/23 04:04:09;;;;;;;13.28;5.58;;;;;;;19.89;68.26;101361.66;1764732;79;21323;-71
2021/07/23 04:06:42;;;;;;;17.15;5.47;;;;;;;19.93;68.07;101360.73;1774123;79;21240;-74
2021/07/23 04:09:15;;;;;;;19.45;5.45;;;;;;;19.98;67.82;101361.22;1792667;79;21305;-71
2021/07/23 04:11:50;;;;;;;13.75;5.30;;;;;;;19.99;67.47;101364.33;1790272;79;21166;-70
2021/07/23 04:14:25;;;;;;;17.17;4.90;;;;;;;20.02;67.41;101358.06;1777640;79;21877;-71
2021/07/23 04:16:57;;;;;;;16.77;5.77;;;;;;;20.09;67.09;101357.98;1776493;80;21765;-71
2021/07/23 04:19:31;;;;;;;11.80;5.05;;;;;;;20.18;66.09;101353.89;1794984;80;21841;-72
2021/07/23 04:22:05;;;;;;;17.80;4.97;;;;;;;20.28;66.04;101360.75;1784028;80;21371;-71
2021/07/23 04:24:44;;;;;;;14.55;4.60;;;;;;;20.42;66.14;101355.41;1769681;79;21190;-71
2021/07/23 04:27:17;;;;;;;17.85;5.17;;;;;;;20.58;65.51;101355.97;1769934;81;21177;-70
2021/07/23 04:30:00;;;;;;;16.25;4.92;;;;;;;20.74;64.81;101354.54;1758628;81;21311;-70
2021/07/23 04:32:34;;;;;;;9.58;4.67;;;;;;;20.98;63.87;101353.81;1758465;80;21319;-71
2021/07/23 04:35:10;;;;;;;16.23;4.97;;;;;;;21.40;62.60;101348.64;1762352;80;21335;-71
2021/07/23 04:37:43;;;;;;;12.05;4.70;;;;;;;21.95;60.86;101347.97;1740751;81;21699;-71
2021/07/23 04:40:29;;;;;;;19.45;5.53;;;;;;;22.56;60.24;101356.61;1767678;79;21170;-73
2021/07/23 04:43:06;;;;;;;8.20;4.83;;;;;;;23.19;57.67;101346.61;1803189;79;21205;-73
2021/07/23 04:45:40;;;;;;;9.80;4.62;;;;;;;23.68;56.21;101346.78;1803284;79;21331;-74
2021/07/23 04:48:13;;;;;;;10.30;4.72;;;;;;;24.14;54.80;101348.44;1803055;79;21177;-72
2021/07/23 04:50:56;;;;;;;11.57;4.33;;;;;;;24.62;52.21;101349.06;1769284;79;21332;-72
2021/07/23 04:53:48;;;;;;;8.55;4.70;;;;;;;25.09;51.11;101346.44;1766040;79;21379;-73
2021/07/23 04:56:38;;;;;;;12.88;3.85;;;;;;;25.46;50.43;101349.88;1762374;79;21385;-73
2021/07/23 04:59:14;;;;;;;20.88;4.33;;;;;;;25.78;49.10;101347.14;1773881;80;21264;-75
2021/07/23 05:01:47;;;;;;;10.13;4.25;;;;;;;26.14;49.09;101348.81;1767818;79;21342;-75
2021/07/23 05:04:20;;;;;;;7.33;3.50;;;;;;;26.47;46.41;101352.53;1734787;82;21719;-72
2021/07/23 05:06:55;;;;;;;12.25;3.90;;;;;;;26.66;45.63;101357.72;1759593;80;21173;-74
2021/07/23 05:09:30;;;;;;;10.25;4.97;;;;;;;26.87;45.61;101357.07;1758527;80;21173;-74
2021/07/23 05:12:03;;;;;;;16.57;4.45;;;;;;;27.14;46.11;101360.89;1759290;80;21316;-71
2021/07/23 05:14:37;;;;;;;13.70;4.47;;;;;;;27.45;46.32;101357.50;1755654;81;21230;-74
2021/07/23 05:17:09;;;;;;;16.70;4.35;;;;;;;27.72;45.90;101359.61;1768892;81;21695;-74
2021/07/23 05:19:42;;;;;;;11.03;3.65;;;;;;;28.02;44.67;101361.00;1770496;80;21355;-73
2021/07/23 05:22:14;;;;;;;19.75;4.17;;;;;;;28.18;43.87;101358.45;1775089;79;21344;-79
2021/07/23 05:24:47;;;;;;;15.83;4.83;;;;;;;28.40;43.68;101362.22;1757332;80;21862;-74
2021/07/23 05:27:21;;;;;;;13.85;3.58;;;;;;;28.58;44.24;101359.27;1765326;79;21704;-70
2021/07/23 05:29:54;;;;;;;10.75;3.90;;;;;;;28.79;42.85;101357.61;1769983;80;21241;-71
2021/07/23 05:32:27;;;;;;;8.45;3.27;;;;;;;29.02;41.88;101360.09;1780050;80;21312;-73
2021/07/23 05:35:01;;;;;;;7.62;3.90;;;;;;;29.11;41.43;101361.57;1770268;80;21332;-74
2021/07/23 05:37:34;;;;;;;5.47;3.50;;;;;;;29.18;41.34;101348.91;1768805;81;21331;-71
2021/07/23 05:40:08;;;;;;;5.70;3.37;;;;;;;29.33;40.63;101350.92;1763766;80;21726;-74
2021/07/23 05:42:40;;;;;;;10.58;3.75;;;;;;;29.44;40.29;101352.02;1760614;81;21330;-75
2021/07/23 05:45:14;;;;;;;20.52;3.62;;;;;;;29.52;40.26;101346.72;1729294;81;21319;-74
2021/07/23 05:47:46;;;;;;;7.47;3.50;;;;;;;29.68;40.20;101348.97;1760949;81;21686;-73
2021/07/23 05:50:19;;;;;;;15.45;3.50;;;;;;;29.80;40.02;101345.13;1761566;80;21384;-72
2021/07/23 05:52:55;;;;;;;24.27;3.92;;;;;;;29.97;40.46;101353.31;1781535;80;21224;-80
2021/07/23 05:55:29;;;;;;;9.50;3.90;;;;;;;30.14;39.64;101349.43;1784714;80;21327;-78
2021/07/23 05:58:03;;;;;;;10.13;3.65;;;;;;;30.21;38.55;101346.71;1762548;80;21225;-77
2021/07/23 06:00:36;;;;;;;;;;;;;;;30.26;38.58;101349.91;1788761;80;21339;-75
2021/07/23 06:03:08;;;;;;;10.05;4.40;;;;;;;30.38;38.96;101346.89;1747352;81;20247;-78
2021/07/23 06:05:41;;;;;;;7.85;3.55;;;;;;;30.51;38.71;101346.95;1748461;81;21324;-80
2021/07/23 06:08:14;;;;;;;10.03;4.40;;;;;;;30.60;38.45;101344.07;1745006;82;21336;-75
2021/07/23 06:10:48;;;;;;;19.00;3.70;;;;;;;30.61;38.00;101344.30;1752102;81;21174;-80
2021/07/23 06:13:21;;;;;;;12.73;4.15;;;;;;;30.65;38.73;101352.41;1744826;82;21898;-80
2021/07/23 06:15:54;;;;;;;9.03;3.70;;;;;;;30.83;38.44;101352.74;1752189;82;21842;-74
2021/07/23 06:18:28;;;;;;;9.65;3.60;;;;;;;30.96;37.83;101347.88;1725705;82;21763;-77
2021/07/23 06:21:01;;;;;;;12.43;4.45;;;;;;;31.01;37.45;101353.91;1752468;81;21206;-80
2021/07/23 06:23:33;;;;;;;8.58;3.67;;;;;;;30.97;38.24;101353.84;1744850;82;21819;-73
2021/07/23 06:26:06;;;;;;;;;;;;;;;31.00;38.65;101359.42;1754736;81;21744;-75
2021/07/23 06:28:38;;;;;;;8.20;3.60;;;;;;;31.12;38.50;101358.62;1744762;82;20190;-75
2021/07/23 06:31:14;;;;;;;7.33;3.45;;;;;;;31.23;38.27;101348.19;1752239;81;21684;-74
2021/07/23 06:33:45;;;;;;;7.65;3.08;;;;;;;31.26;37.58;101350.90;1749596;81;21348;-75
2021/07/23 06:36:18;;;;;;;8.60;3.65;;;;;;;31.25;37.50;101354.99;1752174;81;21383;-78
2021/07/23 06:38:50;;;;;;;5.22;2.75;;;;;;;31.27;36.43;101351.96;1752138;81;21328;-74
2021/07/23 06:41:23;;;;;;;8.15;3.02;;;;;;;31.33;36.43;101350.42;1744791;82;21430;-78
2021/07/23 06:43:56;;;;;;;6.15;2.45;;;;;;;31.35;36.34;101346.55;1752241;81;21325;-73
2021/07/23 06:46:28;;;;;;;6.75;3.17;;;;;;;31.40;35.78;101353.41;1744940;82;21213;-74
2021/07/23 06:49:01;;;;;;;5.72;3.35;;;;;;;31.43;35.65;101343.20;1754288;75;21324;-73
2021/07/23 06:51:33;;;;;;;8.98;3.35;;;;;;;31.39;35.50;101348.89;1735024;82;21298;-74
2021/07/23 06:54:06;;;;;;;4.55;2.70;;;;;;;31.42;37.39;101345.23;1734995;82;21189;-75
2021/07/23 06:56:38;;;;;;;8.20;2.52;;;;;;;31.68;37.78;101348.14;1734880;83;21221;-74
2021/07/23 06:59:11;;;;;;;6.58;3.15;;;;;;;31.81;35.78;101338.10;1734808;82;21759;-75
2021/07/23 07:01:43;;;;;;;5.58;2.90;;;;;;;31.90;36.74;101333.51;1734915;83;21186;-74
2021/07/23 07:04:17;;;;;;;;;;;;;;;32.00;37.45;101340.84;1737251;82;21199;-74
2021/07/23 07:06:50;;;;;;;13.95;2.83;;;;;;;32.08;36.41;101344.66;1696655;84;20339;-73
2021/07/23 07:09:27;;;;;;;4.83;3.15;;;;;;;32.14;36.27;101342.46;1699475;84;21348;-74
2021/07/23 07:12:00;;;;;;;5.45;3.12;;;;;;;32.19;35.62;101336.38;1699535;84;21365;-73
2021/07/23 07:14:32;;;;;;;8.55;3.08;;;;;;;32.32;35.62;101336.37;1699674;84;21332;-75
2021/07/23 07:17:05;;;;;;;10.13;3.75;;;;;;;32.35;35.38;101334.16;1699892;84;21195;-73
2021/07/23 07:19:39;;;;;;;8.38;3.30;;;;;;;32.32;35.02;101336.37;1743378;78;21352;-74
2021/07/23 07:22:13;;;;;;;7.42;2.92;;;;;;;32.33;35.01;101332.27;1879781;76;21181;-73
2021/07/23 07:24:46;;;;;;;6.83;2.47;;;;;;;32.38;34.10;101327.61;1876801;76;21309;-75
2021/07/23 07:27:18;;;;;;;;;;;;;;;32.40;34.51;101336.66;1878159;76;21312;-73
2021/07/23 07:29:54;;;;;;;13.43;3.30;;;;;;;32.41;34.37;101331.75;1874974;76;20185;-74
2021/07/23 07:32:27;;;;;;;12.75;2.85;;;;;;;32.39;32.99;101335.02;1875124;76;21193;-77
2021/07/23 07:34:59;;;;;;;5.75;2.10;;;;;;;32.27;32.39;101328.70;1875130;76;21312;-73
2021/07/23 07:37:32;;;;;;;7.33;2.33;;;;;;;32.08;29.27;101337.47;1875288;76;21301;-75
2021/07/23 07:40:09;;;;;;;6.08;1.98;;;;;;;31.47;29.15;101337.73;1874888;76;21356;-74
2021/07/23 07:42:42;;;;;;;12.35;2.25;;;;;;;30.88;30.62;101332.34;1874945;76;21154;-74
2021/07/23 07:45:15;;;;;;;9.05;1.80;;;;;;;30.53;30.46;101331.03;1875068;76;21802;-76
2021/07/23 07:47:47;;;;;;;2.12;1.47;;;;;;;30.37;30.62;101328.84;1875183;76;21352;-75
2021/07/23 07:50:20;;;;;;;8.43;1.92;;;;;;;30.34;30.54;101328.77;1875248;76;21352;-73
2021/07/23 07:52:53;;;;;;;10.23;2.22;;;;;;;30.40;30.83;101326.66;1874794;76;21727;-77
2021/07/23 07:55:43;;;;;;;8.65;2.08;;;;;;;30.52;31.88;101332.83;1756620;80;21765;-72
2021/07/23 07:58:15;;;;;;;4.50;1.57;;;;;;;30.42;29.62;101340.61;1784521;80;21323;-72
2021/07/23 08:00:48;;;;;;;3.47;1.77;;;;;;;29.97;31.40;101331.23;1784574;79;21837;-72
2021/07/23 08:03:22;;;;;;;3.00;1.52;;;;;;;29.67;30.43;101332.98;1784644;80;22170;-75
2021/07/23 08:06:01;;;;;;;8.55;1.62;;;;;;;29.26;31.02;101337.86;1784606;80;21181;-74
2021/07/23 08:08:29;;;;;;;2.67;1.57;;;;;;;28.86;31.18;101340.64;1784641;79;21320;-78
2021/07/23 08:11:02;;;;;;;9.58;1.80;;;;;;;28.53;32.21;101335.23;1784722;80;21220;-73
2021/07/23 08:13:34;;;;;;;3.22;1.55;;;;;;;28.35;31.34;101344.44;1784628;80;21403;-72
2021/07/23 08:16:07;;;;;;;7.03;1.70;;;;;;;28.16;32.20;101340.84;1784581;79;21235;-74
2021/07/23 08:18:41;;;;;;;7.58;2.67;;;;;;;28.16;33.17;101333.70;1753220;79;21928;-74
2021/07/23 08:21:16;;;;;;;25.40;2.72;;;;;;;28.32;33.33;101330.28;1784449;79;21315;-73
2021/07/23 08:23:50;;;;;;;4.85;1.92;;;;;;;28.54;33.53;101330.32;1811120;75;21316;-74
2021/07/23 08:26:22;;;;;;;9.48;2.20;;;;;;;28.67;32.40;101331.33;1842561;78;21356;-75
2021/07/23 08:28:56;;;;;;;9.53;3.20;;;;;;;28.71;31.79;101323.69;1842552;78;21356;-74
2021/07/23 08:31:28;;;;;;;21.25;1.95;;;;;;;28.62;30.96;101337.92;1842681;78;21317;-73
2021/07/23 08:34:01;;;;;;;8.43;1.98;;;;;;;28.39;31.56;101326.84;1842576;78;21312;-75
2021/07/23 08:36:34;;;;;;;7.10;1.60;;;;;;;28.19;32.23;101323.57;1842595;78;21316;-75
2021/07/23 08:39:17;;;;;;;10.23;1.87;;;;;;;28.07;31.66;101320.14;1842557;78;21846;-75
2021/07/23 08:41:56;;;;;;;5.75;2.70;;;;;;;28.01;32.42;101329.34;1842404;78;21344;-75
2021/07/23 08:44:28;;;;;;;7.03;1.57;;;;;;;28.04;32.99;101333.73;1842433;78;21799;-74
2021/07/23 08:47:03;;;;;;;9.88;2.20;;;;;;;27.98;31.57;101335.19;1842719;78;21305;-74
2021/07/23 08:49:35;;;;;;;8.40;1.92;;;;;;;27.78;32.19;101336.78;1842468;78;21296;-74
2021/07/23 08:52:08;;;;;;;6.42;1.80;;;;;;;27.68;32.86;101334.38;1842410;78;21966;-74
2021/07/23 08:54:40;;;;;;;3.27;1.90;;;;;;;27.69;33.14;101329.74;1842674;78;21297;-75
2021/07/23 08:57:24;;;;;;;10.10;2.00;;;;;;;27.77;32.62;101337.36;1842686;78;21154;-75
2021/07/23 08:59:57;;;;;;;7.58;2.00;;;;;;;27.75;32.71;101338.30;1823373;78;21860;-75
2021/07/23 09:02:30;;;;;;;6.97;1.67;;;;;;;27.70;32.46;101329.16;1823344;78;21319;-73
2021/07/23 09:05:15;;;;;;;13.98;2.50;;;;;;;27.57;32.56;101331.19;1755331;80;21327;-73
2021/07/23 09:07:48;;;;;;;6.25;1.90;;;;;;;27.54;33.38;101319.66;1820613;78;21284;-74
2021/07/23 09:10:27;;;;;;;13.10;8.28;;;;;;;27.58;32.82;101327.14;1786867;79;21232;-74
2021/07/23 09:13:05;;;;;;;10.25;4.28;;;;;;;27.56;32.97;101335.23;1823180;77;21149;-73
2021/07/23 09:15:43;;;;;;;9.98;2.90;;;;;;;27.52;33.00;101325.72;1823291;78;21307;-73
2021/07/23 09:18:31;;;;;;;7.17;2.05;;;;;;;27.55;33.23;101325.02;1786765;79;21320;-73
2021/07/23 09:21:06;;;;;;;17.17;2.72;;;;;;;27.54;33.06;101316.22;1823351;77;21379;-73
2021/07/23 09:23:41;;;;;;;12.75;2.42;;;;;;;27.39;32.90;101329.78;1786690;80;21169;-74
2021/07/23 09:26:16;;;;;;;2.22;1.70;;;;;;;27.21;33.31;101323.27;1823294;78;21177;-72
2021/07/23 09:28:50;;;;;;;8.20;2.27;;;;;;;27.12;34.26;101316.79;1823362;77;21328;-73
2021/07/23 09:31:28;;;;;;;4.25;1.52;;;;;;;27.21;34.73;101323.27;1787044;78;21810;-74
2021/07/23 09:34:08;;;;;;;6.05;1.85;;;;;;;27.27;32.82;101316.71;1782602;80;21336;-75
2021/07/23 09:36:36;;;;;;;12.50;1.92;;;;;;;27.22;32.80;101312.66;1823214;78;21714;-76
2021/07/23 09:39:15;;;;;;;4.70;1.77;;;;;;;27.10;32.91;101317.75;1782189;80;21319;-72
2021/07/23 09:41:44;;;;;;;7.80;1.98;;;;;;;26.97;33.10;101318.94;1788185;77;21323;-72
2021/07/23 09:44:18;;;;;;;4.83;2.40;;;;;;;26.76;34.09;101311.66;1823538;77;21897;-72
2021/07/23 09:46:57;;;;;;;5.00;1.92;;;;;;;26.76;34.09;101311.66;1823068;77;21588;-73
2021/07/23 09:49:31;;;;;;;7.85;2.00;;;;;;;26.79;34.08;101311.78;1786799;80;21327;-74
2021/07/23 09:52:05;;;;;;;4.75;2.02;;;;;;;26.83;34.00;101313.33;1823310;77;21181;-73
2021/07/23 09:54:40;;;;;;;7.42;2.00;;;;;;;26.86;33.96;101304.05;1786671;80;21189;-72
2021/07/23 09:57:12;;;;;;;4.58;1.98;;;;;;;26.92;34.41;101306.91;1830502;75;21323;-71
2021/07/23 10:00:10;;;;;;;19.90;1.93;;;;;;;27.01;34.69;101302.76;1846869;77;21367;-70
2021/07/23 10:02:44;;;;;;;6.83;2.02;;;;;;;27.11;34.20;101302.30;1846480;77;21398;-71
2021/07/23 10:05:16;;;;;;;10.13;2.05;;;;;;;27.23;33.72;101311.47;1846415;77;21932;-71
2021/07/23 10:08:06;;;;;;;13.40;2.20;;;;;;;27.23;33.99;101312.89;1846869;77;21712;-71
2021/07/23 10:10:39;;;;;;;6.45;1.70;;;;;;;27.23;34.23;101308.61;1846515;77;21300;-70
2021/07/23 10:13:14;;;;;;;10.20;1.80;;;;;;;27.17;33.03;101302.33;1846678;77;21244;-74
2021/07/23 10:15:47;;;;;;;9.78;2.15;;;;;;;27.08;34.10;101303.61;1846504;77;21304;-73
2021/07/23 10:18:21;;;;;;;8.85;1.77;;;;;;;27.04;34.23;101296.36;1843357;77;21394;-72
2021/07/23 10:20:53;;;;;;;17.13;3.23;;;;;;;27.03;33.37;101290.42;1846826;77;21853;-71
2021/07/23 10:23:25;;;;;;;5.80;2.17;;;;;;;27.04;34.10;101306.34;1846738;77;21834;-72
2021/07/23 10:26:06;;;;;;;6.15;2.08;;;;;;;27.02;33.89;101295.05;1846997;77;21139;-74
2021/07/23 10:28:54;;;;;;;13.30;2.55;;;;;;;27.01;34.33;101294.81;1800742;79;21328;-74
2021/07/23 10:31:33;;;;;;;9.03;2.45;;;;;;;27.02;34.37;101287.33;1812220;79;21174;-72
2021/07/23 10:34:12;;;;;;;4.87;2.55;;;;;;;27.02;33.97;101289.34;1800745;79;21300;-73
2021/07/23 10:36:41;;;;;;;8.88;1.80;;;;;;;27.01;35.28;101287.06;1812302;79;21296;-72
2021/07/23 10:39:19;;;;;;;4.28;2.10;;;;;;;27.06;35.62;101291.11;1800664;79;21324;-73
2021/07/23 10:41:57;;;;;;;8.40;2.92;;;;;;;27.12;34.65;101281.75;1812303;79;21327;-74
2021/07/23 10:44:35;;;;;;;13.55;2.37;;;;;;;27.08;34.76;101282.44;1812308;79;21319;-72
2021/07/23 10:47:10;;;;;;;10.78;2.40;;;;;;;27.03;34.97;101285.53;1800520;79;21347;-72
2021/07/23 10:49:47;;;;;;;14.55;3.05;;;;;;;26.91;34.37;101286.71;1812186;79;21197;-72
2021/07/23 10:52:34;;;;;;;13.60;2.42;;;;;;;26.75;34.52;101280.06;1800554;79;21324;-72
2021/07/23 10:55:21;;;;;;;8.75;3.02;;;;;;;26.66;34.35;101273.63;1812336;79;21364;-73
2021/07/23 10:58:13;;;;;;;14.38;2.60;;;;;;;26.63;35.33;101273.73;1800604;79;21381;-73
2021/07/23 11:00:59;;;;;;;10.85;2.67;;;;;;;26.63;35.48;101275.77;1812340;79;21210;-74
2021/07/23 11:03:43;;;;;;;6.65;2.47;;;;;;;26.59;35.82;101277.04;1812113;79;21332;-73
2021/07/23 11:06:25;;;;;;;4.55;2.08;;;;;;;26.60;35.70;101276.46;1800586;79;21225;-74
2021/07/23 11:09:04;;;;;;;9.93;1.80;;;;;;;26.65;35.65;101261.38;1780337;79;21862;-73
2021/07/23 11:11:34;;;;;;;8.30;2.25;;;;;;;26.71;34.36;101278.48;1812369;79;21320;-72
2021/07/23 11:14:18;;;;;;;5.87;2.63;;;;;;;26.68;34.21;101274.94;1800941;79;21226;-72
2021/07/23 11:16:53;;;;;;;10.98;2.20;;;;;;;26.65;35.07;101263.41;1800622;79;21209;-73
2021/07/23 11:19:26;;;;;;;6.70;2.15;;;;;;;26.68;35.37;101275.52;1781483;79;21182;-78
2021/07/23 11:22:00;;;;;;;8.00;2.30;;;;;;;26.70;35.07;101268.89;1800658;79;21333;-73
2021/07/23 11:24:36;;;;;;;10.00;2.22;;;;;;;26.65;35.56;101270.54;1812348;78;21319;-73
2021/07/23 11:27:10;;;;;;;9.65;2.65;;;;;;;26.57;36.02;101266.59;1800709;79;21835;-73
2021/07/23 11:29:44;;;;;;;8.23;2.10;;;;;;;26.54;36.40;101257.34;1812233;79;21351;-76
2021/07/23 11:32:18;;;;;;;10.85;2.33;;;;;;;26.64;36.58;101257.48;1800698;79;21320;-75
2021/07/23 11:35:10;;;;;;;6.53;2.25;;;;;;;26.72;36.06;101255.95;1800671;79;21296;-73
2021/07/23 11:37:42;;;;;;;8.83;2.10;;;;;;;26.82;35.92;101240.39;1812148;78;21842;-72
2021/07/23 11:40:18;;;;;;;5.65;2.15;;;;;;;26.91;36.30;101260.47;1778837;79;21739;-70
2021/07/23 11:42:57;;;;;;;6.17;2.30;;;;;;;26.95;34.68;101260.59;1812149;79;21193;-76
2021/07/23 11:45:44;;;;;;;8.03;2.27;;;;;;;26.81;35.16;101255.84;1800455;79;21322;-72
2021/07/23 11:48:16;;;;;;;8.25;2.67;;;;;;;26.68;35.11;101253.55;1812384;79;21782;-72
2021/07/23 11:50:56;;;;;;;6.08;2.75;;;;;;;26.63;35.74;101248.69;1800786;79;21839;-72
2021/07/23 11:53:29;;;;;;;4.78;2.25;;;;;;;26.66;36.65;101250.23;1812511;79;21426;-73
2021/07/23 11:56:02;;;;;;;13.27;2.97;;;;;;;26.69;35.52;101259.48;1807888;74;21210;-80
2021/07/23 11:58:39;;;;;;;9.53;2.50;;;;;;;26.66;35.98;101247.97;1809937;79;21229;-78